Time;durP1;ratioP1;P1;durP2;ratioP2;P2;SDS_P1;SDS_P2;PMS_P1;PMS_P2;Temp;Humidity;BMP_temperature;BMP_pressure;BME280_temperature;BME280_humidity;BME280_pressure;Samples;Min_cycle;Max_cycle;Signal;HPM_P1;HPM_P2
2021/09/25 00:02:02;;;;;;;;;;;16.60;90.10;;;;;;4937303;29;19919;-64
2021/09/25 00:04:27;;;;;;;;;;;16.60;90.10;;;;;;4937326;29;19926;-64
2021/09/25 00:06:53;;;;;;;;;;;16.50;90.10;;;;;;4937034;29;19923;-64
2021/09/25 00:09:18;;;;;;;;;;;16.50;90.00;;;;;;4937041;29;19963;-63
2021/09/25 00:11:44;;;;;;;;;;;16.60;90.20;;;;;;4937531;29;19918;-64
2021/09/25 00:14:10;;;;;;;;;;;16.50;90.20;;;;;;4937113;29;19926;-64
2021/09/25 00:16:36;;;;;;;;;;;16.50;90.30;;;;;;4944821;29;20332;-63
2021/09/25 00:19:02;;;;;;;;;;;16.50;90.10;;;;;;4948549;29;19919;-63
2021/09/25 00:21:29;;;;;;;;;;;16.50;90.30;;;;;;4936956;29;20285;-65
2021/09/25 00:23:54;;;;;;;;;;;16.50;90.60;;;;;;4937237;29;20347;-65
2021/09/25 00:26:20;;;;;;;;;;;16.50;90.40;;;;;;4936495;29;19954;-65
2021/09/25 00:28:46;;;;;;;;;;;16.50;90.20;;;;;;4937082;29;19927;-65
2021/09/25 00:31:11;;;;;;;;;;;16.50;90.40;;;;;;4936604;29;19923;-65
2021/09/25 00:33:37;;;;;;;;;;;16.50;90.40;;;;;;4936680;29;19919;-65
2021/09/25 00:36:03;;;;;;;;;;;16.50;90.40;;;;;;4936653;29;20405;-65
2021/09/25 00:38:28;;;;;;;;;;;16.50;90.50;;;;;;4936573;29;19919;-65
2021/09/25 00:40:54;;;;;;;;;;;16.50;90.30;;;;;;4936746;29;20363;-64
2021/09/25 00:43:19;;;;;;;;;;;16.50;90.50;;;;;;4935681;29;20380;-65
2021/09/25 00:45:45;;;;;;;;;;;16.50;90.50;;;;;;4936586;29;19940;-65
2021/09/25 00:48:10;;;;;;;;;;;16.50;90.50;;;;;;4936492;29;20419;-64
2021/09/25 00:50:36;;;;;;;;;;;16.50;90.30;;;;;;4936337;29;19969;-65
2021/09/25 00:53:02;;;;;;;;;;;16.50;90.60;;;;;;4936605;29;19942;-65
2021/09/25 00:55:27;;;;;;;;;;;16.50;90.60;;;;;;4935964;29;19919;-65
2021/09/25 00:57:57;;;;;;;;;;;16.50;90.60;;;;;;4936637;29;20315;-65
2021/09/25 01:00:22;;;;;;;;;;;16.50;90.40;;;;;;4936204;29;20398;-65
2021/09/25 01:02:48;;;;;;;;;;;16.50;90.70;;;;;;4936109;29;19918;-66
2021/09/25 01:05:16;;;;;;;;;;;16.50;90.70;;;;;;4946001;29;20327;-65
2021/09/25 01:07:42;;;;;;;;;;;16.50;90.90;;;;;;4947848;29;19926;-65
2021/09/25 01:10:08;;;;;;;;;;;16.50;90.50;;;;;;4935172;29;19923;-65
2021/09/25 01:12:34;;;;;;;;;;;16.50;90.80;;;;;;4935951;29;19922;-65
2021/09/25 01:14:59;;;;;;;;;;;16.50;90.80;;;;;;4935669;29;19919;-66
2021/09/25 01:17:25;;;;;;;;;;;16.50;90.80;;;;;;4946752;29;19984;-65
2021/09/25 01:19:50;;;;;;;;;;;16.50;90.70;;;;;;4947537;29;19923;-66
2021/09/25 01:22:16;;;;;;;;;;;16.50;90.90;;;;;;4936100;29;19915;-66
2021/09/25 01:24:41;;;;;;;;;;;16.50;90.90;;;;;;4935464;29;19923;-65
2021/09/25 01:27:07;;;;;;;;;;;16.50;90.90;;;;;;4935778;29;19918;-65
2021/09/25 01:29:33;;;;;;;;;;;16.40;90.70;;;;;;4935916;29;19922;-64
2021/09/25 01:31:59;;;;;;;;;;;16.40;90.90;;;;;;4935528;29;19926;-65
2021/09/25 01:34:24;;;;;;;;;;;16.40;91.00;;;;;;4935691;29;19919;-65
2021/09/25 01:36:50;;;;;;;;;;;16.40;91.10;;;;;;4935379;29;19919;-65
2021/09/25 01:39:16;;;;;;;;;;;16.40;91.00;;;;;;4935314;29;19996;-67
2021/09/25 01:41:41;;;;;;;;;;;16.40;91.20;;;;;;4935791;29;19926;-65
2021/09/25 01:44:07;;;;;;;;;;;16.40;91.20;;;;;;4935407;29;19925;-66
2021/09/25 01:46:33;;;;;;;;;;;16.40;91.30;;;;;;4935452;29;19923;-65
2021/09/25 01:48:58;;;;;;;;;;;16.30;91.10;;;;;;4935171;29;19919;-65
2021/09/25 01:51:24;;;;;;;;;;;16.30;91.30;;;;;;4935461;29;20025;-65
2021/09/25 01:53:49;;;;;;;;;;;16.30;91.40;;;;;;4935234;29;19941;-65
2021/09/25 01:56:16;;;;;;;;;;;16.30;91.40;;;;;;4934859;29;19922;-64
2021/09/25 01:58:42;;;;;;;;;;;16.20;91.50;;;;;;4944229;29;20292;-65
2021/09/25 02:01:09;;;;;;;;;;;16.20;91.40;;;;;;4948745;29;20396;-65
2021/09/25 02:03:37;;;;;;;;;;;16.20;91.70;;;;;;4935421;29;19966;-65
2021/09/25 02:06:03;;;;;;;;;;;16.20;91.80;;;;;;4934658;29;20352;-65
2021/09/25 02:08:29;;;;;;;;;;;16.10;91.80;;;;;;4935167;29;20294;-64
2021/09/25 02:10:55;;;;;;;;;;;16.10;91.70;;;;;;4935119;29;19923;-65
2021/09/25 02:13:20;;;;;;;;;;;16.10;92.00;;;;;;4934865;29;19919;-65
2021/09/25 02:15:46;;;;;;;;;;;16.10;92.00;;;;;;4935317;29;19919;-65
2021/09/25 02:18:12;;;;;;;;;;;16.10;92.10;;;;;;4934825;29;19941;-65
2021/09/25 02:20:37;;;;;;;;;;;16.00;91.90;;;;;;4934909;29;19919;-65
2021/09/25 02:23:03;;;;;;;;;;;16.10;92.20;;;;;;4935288;29;19973;-65
2021/09/25 02:25:28;;;;;;;;;;;16.00;92.30;;;;;;4934901;29;19985;-65
2021/09/25 02:27:54;;;;;;;;;;;16.00;92.30;;;;;;4935129;29;19919;-65
2021/09/25 02:30:20;;;;;;;;;;;16.00;92.20;;;;;;4934597;29;19923;-65
2021/09/25 02:32:45;;;;;;;;;;;16.00;92.50;;;;;;4935073;29;19919;-64
2021/09/25 02:35:12;;;;;;;;;;;16.00;92.50;;;;;;4934233;29;20010;-65
2021/09/25 02:37:37;;;;;;;;;;;15.90;92.60;;;;;;4934663;29;20398;-65
2021/09/25 02:40:03;;;;;;;;;;;15.90;92.50;;;;;;4934870;29;19927;-65
2021/09/25 02:42:29;;;;;;;;;;;16.00;92.70;;;;;;4934856;29;19919;-65
2021/09/25 02:44:55;;;;;;;;;;;16.00;92.80;;;;;;4934232;29;20439;-65
2021/09/25 02:47:20;;;;;;;;;;;15.90;92.80;;;;;;4934805;29;19958;-65
2021/09/25 02:49:46;;;;;;;;;;;15.90;92.80;;;;;;4934248;29;19922;-63
2021/09/25 02:52:11;;;;;;;;;;;15.90;93.00;;;;;;4934852;29;19925;-63
2021/09/25 02:54:37;;;;;;;;;;;15.90;93.00;;;;;;4934121;29;19983;-63
2021/09/25 02:57:03;;;;;;;;;;;15.90;93.10;;;;;;4934816;29;19979;-63
2021/09/25 02:59:28;;;;;;;;;;;15.90;93.00;;;;;;4940202;29;19926;-63
2021/09/25 03:01:54;;;;;;;;;;;15.90;93.20;;;;;;4932989;29;19918;-65
2021/09/25 03:04:19;;;;;;;;;;;15.90;93.30;;;;;;4934418;29;20348;-64
2021/09/25 03:06:45;;;;;;;;;;;15.90;93.30;;;;;;4935748;29;20001;-63
2021/09/25 03:09:11;;;;;;;;;;;15.90;93.30;;;;;;4945690;29;19965;-64
2021/09/25 03:11:36;;;;;;;;;;;15.90;93.40;;;;;;4949944;29;19965;-64
2021/09/25 03:14:02;;;;;;;;;;;15.90;93.50;;;;;;4938189;29;20287;-62
2021/09/25 03:16:27;;;;;;;;;;;15.90;93.60;;;;;;4938128;29;19954;-62
2021/09/25 03:18:53;;;;;;;;;;;15.90;93.40;;;;;;4937840;29;19930;-64
2021/09/25 03:21:18;;;;;;;;;;;15.90;93.60;;;;;;4938348;29;19919;-64
2021/09/25 03:23:44;;;;;;;;;;;15.90;93.70;;;;;;4937913;29;19927;-63
2021/09/25 03:26:09;;;;;;;;;;;15.90;93.70;;;;;;4937656;29;19919;-64
2021/09/25 03:28:35;;;;;;;;;;;15.90;93.80;;;;;;4938368;29;20101;-64
2021/09/25 03:31:00;;;;;;;;;;;15.90;93.70;;;;;;4937602;29;19922;-63
2021/09/25 03:33:26;;;;;;;;;;;15.90;93.90;;;;;;4938114;29;19918;-63
2021/09/25 03:35:51;;;;;;;;;;;15.90;93.90;;;;;;4937414;29;19926;-64
2021/09/25 03:38:21;;;;;;;;;;;15.90;93.90;;;;;;4938066;29;19922;-64
2021/09/25 03:40:47;;;;;;;;;;;15.90;93.80;;;;;;4937510;29;19929;-63
2021/09/25 03:43:13;;;;;;;;;;;15.90;94.00;;;;;;4937609;29;19933;-63
2021/09/25 03:45:39;;;;;;;;;;;15.90;94.00;;;;;;4937625;29;19918;-63
2021/09/25 03:48:05;;;;;;;;;;;15.90;94.10;;;;;;4937452;29;19919;-70
2021/09/25 03:50:35;;;;;;;;;;;15.90;93.90;;;;;;4944434;29;20291;-70
2021/09/25 03:53:01;;;;;;;;;;;15.90;94.10;;;;;;4949196;29;19926;-71
2021/09/25 03:55:27;;;;;;;;;;;15.90;94.20;;;;;;4937155;29;19919;-69
2021/09/25 03:57:58;;;;;;;;;;;15.90;94.30;;;;;;4937714;29;20462;-71
2021/09/25 04:00:23;;;;;;;;;;;15.90;94.10;;;;;;4937157;29;20355;-70
2021/09/25 04:02:50;;;;;;;;;;;15.90;94.30;;;;;;4937564;29;19919;-70
2021/09/25 04:05:19;;;;;;;;;;;15.90;94.40;;;;;;4936867;29;20284;-64
2021/09/25 04:07:45;;;;;;;;;;;15.90;94.20;;;;;;4943365;29;20014;-64
2021/09/25 04:10:11;;;;;;;;;;;15.90;94.30;;;;;;4946333;29;20017;-63
2021/09/25 04:12:37;;;;;;;;;;;15.90;94.50;;;;;;4937092;29;19953;-67
2021/09/25 04:15:03;;;;;;;;;;;15.90;94.50;;;;;;4936736;29;19993;-65
2021/09/25 04:17:28;;;;;;;;;;;15.90;94.50;;;;;;4936705;29;19930;-64
2021/09/25 04:19:54;;;;;;;;;;;15.90;94.40;;;;;;4936384;29;19965;-64
2021/09/25 04:22:19;;;;;;;;;;;15.80;94.60;;;;;;4937308;29;19919;-64
2021/09/25 04:24:45;;;;;;;;;;;15.90;94.70;;;;;;4936880;29;19925;-64
2021/09/25 04:27:11;;;;;;;;;;;15.90;94.70;;;;;;4939851;29;20570;-64
2021/09/25 04:29:36;;;;;;;;;;;15.90;94.60;;;;;;4938244;29;19923;-64
2021/09/25 04:32:02;;;;;;;;;;;15.90;94.80;;;;;;4936791;29;19919;-64
2021/09/25 04:34:29;;;;;;;;;;;15.90;94.90;;;;;;4946570;29;20327;-66
2021/09/25 04:36:55;;;;;;;;;;;15.90;94.90;;;;;;4952320;29;19919;-65
2021/09/25 04:39:20;;;;;;;;;;;15.90;94.80;;;;;;4944619;29;19938;-65
2021/09/25 04:41:46;;;;;;;;;;;15.90;94.80;;;;;;4937101;29;20336;-65
2021/09/25 04:44:14;;;;;;;;;;;15.90;95.00;;;;;;4936461;29;19919;-65
2021/09/25 04:46:40;;;;;;;;;;;15.90;95.00;;;;;;4936602;29;20010;-65
2021/09/25 04:49:06;;;;;;;;;;;15.90;94.90;;;;;;4940629;29;20017;-65
2021/09/25 04:51:31;;;;;;;;;;;15.90;94.90;;;;;;4944020;29;20018;-65
2021/09/25 04:53:58;;;;;;;;;;;15.90;95.10;;;;;;4948187;29;20485;-64
2021/09/25 04:56:23;;;;;;;;;;;15.90;95.10;;;;;;4936065;29;19929;-64
2021/09/25 04:58:49;;;;;;;;;;;16.00;95.00;;;;;;4936493;29;20312;-63
2021/09/25 05:01:14;;;;;;;;;;;15.90;95.20;;;;;;4942100;29;20295;-63
2021/09/25 05:03:40;;;;;;;;;;;15.90;95.20;;;;;;4944063;29;19923;-64
2021/09/25 05:06:06;;;;;;;;;;;15.90;95.20;;;;;;4935798;29;20359;-64
2021/09/25 05:08:31;;;;;;;;;;;16.00;95.50;;;;;;4936064;29;19919;-67
2021/09/25 05:10:57;;;;;;;;;;;16.00;95.10;;;;;;4936176;29;19923;-66
2021/09/25 05:13:22;;;;;;;;;;;16.00;95.30;;;;;;4935816;29;19919;-66
2021/09/25 05:15:48;;;;;;;;;;;16.00;95.40;;;;;;4935919;29;20434;-67
2021/09/25 05:18:13;;;;;;;;;;;16.00;95.40;;;;;;4935988;29;20398;-66
2021/09/25 05:20:39;;;;;;;;;;;16.00;95.20;;;;;;4936264;29;20447;-66
2021/09/25 05:23:04;;;;;;;;;;;16.00;95.40;;;;;;4935951;29;19945;-66
2021/09/25 05:25:30;;;;;;;;;;;16.10;95.30;;;;;;4935469;29;19994;-66
2021/09/25 05:27:55;;;;;;;;;;;16.00;95.20;;;;;;4936323;29;20288;-66
2021/09/25 05:30:21;;;;;;;;;;;16.10;95.30;;;;;;4935121;29;20277;-66
2021/09/25 05:32:47;;;;;;;;;;;16.10;95.50;;;;;;4935691;29;19981;-66
2021/09/25 05:35:12;;;;;;;;;;;16.10;95.50;;;;;;4935892;29;19923;-66
2021/09/25 05:37:38;;;;;;;;;;;16.10;95.60;;;;;;4935406;29;19962;-67
2021/09/25 05:40:04;;;;;;;;;;;16.10;95.40;;;;;;4935782;29;20343;-65
2021/09/25 05:42:30;;;;;;;;;;;16.10;95.60;;;;;;4935356;29;19918;-66
2021/09/25 05:44:56;;;;;;;;;;;16.10;95.60;;;;;;4935444;29;20010;-66
2021/09/25 05:47:22;;;;;;;;;;;16.10;95.60;;;;;;4935485;29;20381;-67
2021/09/25 05:49:48;;;;;;;;;;;16.20;95.50;;;;;;4935161;29;19966;-66
2021/09/25 05:52:15;;;;;;;;;;;16.10;95.60;;;;;;4935850;29;19954;-67
2021/09/25 05:54:41;;;;;;;;;;;16.20;95.70;;;;;;4935028;29;19919;-66
2021/09/25 05:57:07;;;;;;;;;;;16.20;95.70;;;;;;4935670;29;19974;-66
2021/09/25 05:59:33;;;;;;;;;;;16.20;95.60;;;;;;4934944;29;19973;-67
2021/09/25 06:01:58;;;;;;;;;;;16.30;95.70;;;;;;4935112;29;20013;-66
2021/09/25 06:04:24;;;;;;;;;;;16.30;95.70;;;;;;4935271;29;19919;-66
2021/09/25 06:06:49;;;;;;;;;;;16.30;95.70;;;;;;4934932;29;19934;-66
2021/09/25 06:09:15;;;;;;;;;;;16.30;95.50;;;;;;4935475;29;19919;-66
2021/09/25 06:11:41;;;;;;;;;;;16.30;95.60;;;;;;4934860;29;19923;-66
2021/09/25 06:14:06;;;;;;;;;;;16.40;95.60;;;;;;4933636;29;19922;-65
2021/09/25 06:16:32;;;;;;;;;;;16.30;95.60;;;;;;4934951;29;20371;-66
2021/09/25 06:18:57;;;;;;;;;;;16.30;95.50;;;;;;4934896;29;19918;-66
2021/09/25 06:21:23;;;;;;;;;;;16.30;95.70;;;;;;4935188;29;19969;-66
2021/09/25 06:23:48;;;;;;;;;;;16.30;95.80;;;;;;4934749;29;19923;-66
2021/09/25 06:26:14;;;;;;;;;;;16.40;95.80;;;;;;4934807;29;19919;-66
2021/09/25 06:28:40;;;;;;;;;;;16.40;95.80;;;;;;4941730;29;19919;-66
2021/09/25 06:31:06;;;;;;;;;;;16.40;95.60;;;;;;4939046;29;19936;-66
2021/09/25 06:33:31;;;;;;;;;;;16.40;95.80;;;;;;4935365;29;19957;-66
2021/09/25 06:35:57;;;;;;;;;;;16.40;95.70;;;;;;4934454;29;19919;-66
2021/09/25 06:38:22;;;;;;;;;;;16.50;95.70;;;;;;4934785;29;19922;-67
2021/09/25 06:40:48;;;;;;;;;;;16.50;95.50;;;;;;4933925;29;19923;-66
2021/09/25 06:43:13;;;;;;;;;;;16.40;95.70;;;;;;4941149;29;19950;-67
2021/09/25 06:45:41;;;;;;;;;;;16.50;95.70;;;;;;4947778;29;19919;-66
2021/09/25 06:48:07;;;;;;;;;;;16.50;95.70;;;;;;4934521;29;19926;-65
2021/09/25 06:50:32;;;;;;;;;;;16.50;95.50;;;;;;4934804;29;20371;-66
2021/09/25 06:52:58;;;;;;;;;;;16.40;95.60;;;;;;4934434;29;19919;-66
2021/09/25 06:55:25;;;;;;;;;;;16.50;95.80;;;;;;4934151;29;19918;-67
2021/09/25 06:57:51;;;;;;;;;;;16.50;95.80;;;;;;4944154;29;19919;-66
2021/09/25 07:00:16;;;;;;;;;;;16.60;95.70;;;;;;4946210;29;19942;-65
2021/09/25 07:02:42;;;;;;;;;;;16.60;95.80;;;;;;4934669;29;20009;-64
2021/09/25 07:05:09;;;;;;;;;;;16.60;95.80;;;;;;4934217;29;19918;-66
2021/09/25 07:07:35;;;;;;;;;;;16.70;95.70;;;;;;4934268;29;19918;-67
2021/09/25 07:10:01;;;;;;;;;;;16.70;95.50;;;;;;4934633;29;20391;-67
2021/09/25 07:12:26;;;;;;;;;;;16.70;95.50;;;;;;4934080;29;19929;-66
2021/09/25 07:14:52;;;;;;;;;;;16.80;95.60;;;;;;4934263;29;19919;-66
2021/09/25 07:17:17;;;;;;;;;;;16.80;95.80;;;;;;4934300;29;20026;-67
2021/09/25 07:19:43;;;;;;;;;;;16.90;95.50;;;;;;4934091;29;20383;-66
2021/09/25 07:22:09;;;;;;;;;;;16.90;95.70;;;;;;4934672;29;19997;-67
2021/09/25 07:24:35;;;;;;;;;;;17.00;95.70;;;;;;4934011;29;20006;-67
2021/09/25 07:27:00;;;;;;;;;;;17.10;95.70;;;;;;4934313;29;19918;-67
2021/09/25 07:29:26;;;;;;;;;;;17.10;95.40;;;;;;4934019;29;19966;-67
2021/09/25 07:31:52;;;;;;;;;;;17.20;95.60;;;;;;4934085;29;19930;-66
2021/09/25 07:34:17;;;;;;;;;;;17.20;95.50;;;;;;4934385;29;19973;-66
2021/09/25 07:36:43;;;;;;;;;;;17.20;95.30;;;;;;4933957;29;19929;-67
2021/09/25 07:39:08;;;;;;;;;;;17.20;95.20;;;;;;4943801;29;19985;-66
2021/09/25 07:41:34;;;;;;;;;;;17.30;95.30;;;;;;4945992;29;19919;-67
2021/09/25 07:44:00;;;;;;;;;;;17.30;95.20;;;;;;4934341;29;20328;-66
2021/09/25 07:46:25;;;;;;;;;;;17.30;95.20;;;;;;4933619;29;19926;-67
2021/09/25 07:48:51;;;;;;;;;;;17.40;95.20;;;;;;4934179;29;19919;-66
2021/09/25 07:51:16;;;;;;;;;;;17.40;95.30;;;;;;4934171;29;19923;-66
2021/09/25 07:53:42;;;;;;;;;;;17.50;95.20;;;;;;4936530;29;19974;-66
2021/09/25 07:56:08;;;;;;;;;;;17.50;95.20;;;;;;4945198;29;20332;-67
2021/09/25 07:58:33;;;;;;;;;;;17.60;95.10;;;;;;4949367;29;19929;-67
2021/09/25 08:00:59;;;;;;;;;;;17.60;95.00;;;;;;4935937;29;20013;-67
2021/09/25 08:03:24;;;;;;;;;;;17.80;95.20;;;;;;4937658;29;20272;-67
2021/09/25 08:05:50;;;;;;;;;;;17.90;95.00;;;;;;4942820;29;19918;-67
2021/09/25 08:08:15;;;;;;;;;;;17.90;94.90;;;;;;4947647;29;19919;-67
2021/09/25 08:10:41;;;;;;;;;;;17.90;94.40;;;;;;4936926;29;19974;-65
2021/09/25 08:13:06;;;;;;;;;;;17.90;94.60;;;;;;4936588;29;20172;-66
2021/09/25 08:15:32;;;;;;;;;;;18.00;94.60;;;;;;4936757;29;19926;-66
2021/09/25 08:17:57;;;;;;;;;;;18.00;94.50;;;;;;4937059;29;19938;-66
2021/09/25 08:20:25;;;;;;;;;;;18.00;94.10;;;;;;4937395;29;19923;-67
2021/09/25 08:22:51;;;;;;;;;;;18.10;94.50;;;;;;4936905;29;19969;-67
2021/09/25 08:25:17;;;;;;;;;;;18.20;94.60;;;;;;4936987;29;20014;-66
2021/09/25 08:27:42;;;;;;;;;;;18.30;94.30;;;;;;4936934;29;19918;-66
2021/09/25 08:30:12;;;;;;;;;;;18.40;94.20;;;;;;4936709;29;19923;-67
2021/09/25 08:32:37;;;;;;;;;;;18.40;94.20;;;;;;4937048;29;20006;-67
2021/09/25 08:35:07;;;;;;;;;;;18.60;94.30;;;;;;4936450;29;20256;-65
2021/09/25 08:37:32;;;;;;;;;;;18.70;93.80;;;;;;4936922;29;19919;-70
2021/09/25 08:39:58;;;;;;;;;;;18.60;93.50;;;;;;4935802;29;20419;-71
2021/09/25 08:42:24;;;;;;;;;;;18.60;93.60;;;;;;4936401;29;19966;-71
2021/09/25 08:44:50;;;;;;;;;;;18.60;93.40;;;;;;4936666;29;19919;-70
2021/09/25 08:47:16;;;;;;;;;;;18.60;93.40;;;;;;4942408;29;19924;-70
2021/09/25 08:49:42;;;;;;;;;;;18.60;93.10;;;;;;4954928;29;19974;-68
2021/09/25 08:52:08;;;;;;;;;;;18.60;93.30;;;;;;4936604;29;19923;-71
2021/09/25 08:54:33;;;;;;;;;;;18.60;93.20;;;;;;4936030;29;19966;-71
2021/09/25 08:57:02;;;;;;;;;;;18.50;92.90;;;;;;4936876;29;19925;-71
2021/09/25 08:59:27;;;;;;;;;;;18.40;92.80;;;;;;4936192;29;20295;-64
2021/09/25 09:01:53;;;;;;;;;;;18.50;93.10;;;;;;4936503;29;19923;-64
2021/09/25 09:04:19;;;;;;;;;;;18.50;93.20;;;;;;4935175;29;19926;-64
2021/09/25 09:06:47;;;;;;;;;;;18.60;93.50;;;;;;4935858;29;19919;-64
2021/09/25 09:09:12;;;;;;;;;;;18.80;92.80;;;;;;4936359;29;19927;-64
2021/09/25 09:11:42;;;;;;;;;;;18.80;93.00;;;;;;4941849;29;20411;-64
2021/09/25 09:14:12;;;;;;;;;;;18.90;93.10;;;;;;4943846;29;20488;-64
2021/09/25 09:16:37;;;;;;;;;;;18.90;92.90;;;;;;4937642;29;19918;-63
2021/09/25 09:19:03;;;;;;;;;;;18.90;92.30;;;;;;4954708;29;19927;-62
2021/09/25 09:21:30;;;;;;;;;;;18.90;92.60;;;;;;4955184;29;20291;-64
2021/09/25 09:23:55;;;;;;;;;;;18.90;92.60;;;;;;4954743;29;19946;-63
2021/09/25 09:26:23;;;;;;;;;;;19.00;92.50;;;;;;4937697;29;20485;-63
2021/09/25 09:28:49;;;;;;;;;;;18.90;92.10;;;;;;4937526;29;19966;-64
2021/09/25 09:31:15;;;;;;;;;;;18.90;92.30;;;;;;4954511;29;20338;-64
2021/09/25 09:33:54;;;;;;;;;;;18.90;92.40;;;;;;4955126;29;20399;-64
2021/09/25 09:36:21;;;;;;;;;;;19.00;92.50;;;;;;4954432;29;19922;-64
2021/09/25 09:39:10;;;;;;;;;;;19.20;92.20;;;;;;4954340;29;20376;-65
2021/09/25 09:41:38;;;;;;;;;;;19.10;92.40;;;;;;4944563;29;20294;-63
2021/09/25 09:44:08;;;;;;;;;;;19.30;92.40;;;;;;4954336;29;20414;-62
2021/09/25 09:46:38;;;;;;;;;;;19.40;92.10;;;;;;4952638;29;19922;-62
2021/09/25 09:49:04;;;;;;;;;;;19.50;91.70;;;;;;4954576;29;19958;-63
2021/09/25 09:51:37;;;;;;;;;;;19.50;91.90;;;;;;4954158;29;20004;-63
2021/09/25 09:54:08;;;;;;;;;;;19.50;91.80;;;;;;4954195;29;19965;-63
2021/09/25 09:56:37;;;;;;;;;;;19.50;91.50;;;;;;4954473;29;19965;-63
2021/09/25 09:59:07;;;;;;;;;;;19.50;91.40;;;;;;4954023;29;20320;-63
2021/09/25 10:01:33;;;;;;;;;;;19.50;91.60;;;;;;4954613;29;19918;-64
2021/09/25 10:03:59;;;;;;;;;;;19.50;91.50;;;;;;4954180;29;19915;-63
2021/09/25 10:06:24;;;;;;;;;;;19.60;91.50;;;;;;4953772;29;19962;-62
2021/09/25 10:08:50;;;;;;;;;;;19.70;91.00;;;;;;4954325;29;20314;-62
2021/09/25 10:11:16;;;;;;;;;;;19.70;91.20;;;;;;4953872;29;19977;-63
2021/09/25 10:13:41;;;;;;;;;;;19.80;91.20;;;;;;4954355;29;19923;-63
2021/09/25 10:16:08;;;;;;;;;;;19.80;91.20;;;;;;4952604;28;19926;-64
2021/09/25 10:18:36;;;;;;;;;;;19.80;90.90;;;;;;4953168;29;21372;-63
2021/09/25 10:21:02;;;;;;;;;;;19.80;90.90;;;;;;4954065;29;20358;-63
2021/09/25 10:23:28;;;;;;;;;;;19.90;91.10;;;;;;4952571;29;19923;-64
2021/09/25 10:25:54;;;;;;;;;;;19.90;90.90;;;;;;4953812;29;19925;-62
2021/09/25 10:28:27;;;;;;;;;;;19.90;91.00;;;;;;4953881;29;20005;-62
2021/09/25 10:30:53;;;;;;;;;;;19.90;90.40;;;;;;4953444;29;20001;-64
2021/09/25 10:33:22;;;;;;;;;;;19.90;90.60;;;;;;4936741;29;19936;-64
2021/09/25 10:35:48;;;;;;;;;;;19.90;90.70;;;;;;4936227;29;20017;-62
2021/09/25 10:38:29;;;;;;;;;;;20.00;90.70;;;;;;4953427;29;20013;-63
2021/09/25 10:41:11;;;;;;;;;;;20.10;90.30;;;;;;4954282;29;19965;-65
2021/09/25 10:43:40;;;;;;;;;;;20.10;90.60;;;;;;4936255;29;19922;-65
2021/09/25 10:46:09;;;;;;;;;;;20.20;90.50;;;;;;4935879;29;19923;-65
2021/09/25 10:48:44;;;;;;;;;;;20.20;90.20;;;;;;4952697;29;19918;-65
2021/09/25 10:51:13;;;;;;;;;;;20.10;89.80;;;;;;4953191;29;19969;-65
2021/09/25 10:53:48;;;;;;;;;;;20.20;90.20;;;;;;4953508;29;20264;-65
2021/09/25 10:56:18;;;;;;;;;;;20.30;90.40;;;;;;4936423;29;19929;-65
2021/09/25 10:58:44;;;;;;;;;;;;;;;;;;4953297;29;19989;-65
2021/09/25 11:01:09;;;;;;;;;;;20.90;90.40;;;;;;4953312;29;20440;-65
2021/09/25 11:03:41;;;;;;;;;;;21.10;90.20;;;;;;4953704;29;19918;-65
2021/09/25 11:06:08;;;;;;;;;;;21.20;90.00;;;;;;4952907;29;19918;-65
2021/09/25 11:08:34;;;;;;;;;;;21.50;90.00;;;;;;4936501;29;20418;-65
2021/09/25 11:11:04;;;;;;;;;;;21.70;89.40;;;;;;4953003;29;20367;-64
2021/09/25 11:13:49;;;;;;;;;;;22.00;89.50;;;;;;4953338;29;20001;-66
2021/09/25 11:16:14;;;;;;;;;;;22.20;87.50;;;;;;4953568;29;19922;-64
2021/09/25 11:18:50;;;;;;;;;;;22.00;85.70;;;;;;4953274;29;19915;-65
2021/09/25 11:21:15;;;;;;;;;;;21.90;86.40;;;;;;4952997;29;20363;-64
2021/09/25 11:23:44;;;;;;;;;;;22.00;86.90;;;;;;4953624;29;19919;-65
2021/09/25 11:26:12;;;;;;;;;;;22.00;85.70;;;;;;4952742;29;19922;-65
2021/09/25 11:28:39;;;;;;;;;;;22.10;85.60;;;;;;4955631;28;19953;-67
2021/09/25 11:31:08;;;;;;;;;;;22.10;84.60;;;;;;4939977;29;19933;-65
2021/09/25 11:33:36;;;;;;;;;;;22.10;84.30;;;;;;4956626;28;19929;-65
2021/09/25 11:36:06;;;;;;;;;;;22.20;85.00;;;;;;4956796;29;19925;-65
2021/09/25 11:38:31;;;;;;;;;;;22.30;84.90;;;;;;4956475;29;19918;-65
2021/09/25 11:40:58;;;;;;;;;;;22.50;83.20;;;;;;4955801;28;19923;-64
2021/09/25 11:43:23;;;;;;;;;;;22.50;82.70;;;;;;4956832;28;19922;-65
2021/09/25 11:45:50;;;;;;;;;;;22.60;83.10;;;;;;4956276;28;20408;-66
2021/09/25 11:48:17;;;;;;;;;;;22.60;83.00;;;;;;4956659;28;19926;-65
2021/09/25 11:50:44;;;;;;;;;;;22.60;81.80;;;;;;4951946;28;20256;-63
2021/09/25 11:53:11;;;;;;;;;;;22.40;80.60;;;;;;4965716;28;19954;-64
2021/09/25 11:55:37;;;;;;;;;;;22.20;80.10;;;;;;4964176;28;19930;-64
2021/09/25 11:58:07;;;;;;;;;;;22.10;80.50;;;;;;4966089;28;20013;-64
2021/09/25 12:00:37;;;;;;;;;;;22.00;80.60;;;;;;4966747;28;19922;-64
2021/09/25 12:03:04;;;;;;;;;;;22.00;80.70;;;;;;4964225;28;19918;-65
2021/09/25 12:05:30;;;;;;;;;;;22.00;80.60;;;;;;4967670;28;19923;-65
2021/09/25 12:07:57;;;;;;;;;;;22.00;80.90;;;;;;4966202;28;19925;-66
2021/09/25 12:10:26;;;;;;;;;;;22.00;80.60;;;;;;4973819;28;19966;-65
2021/09/25 12:12:56;;;;;;;;;;;21.90;80.20;;;;;;4975413;28;19960;-65
2021/09/25 12:15:22;;;;;;;;;;;21.90;80.20;;;;;;4975111;28;19926;-65
2021/09/25 12:18:02;;;;;;;;;;;21.90;80.40;;;;;;4975331;28;19981;-64
2021/09/25 12:20:30;;;;;;;;;;;21.90;79.70;;;;;;4975201;28;19918;-67
2021/09/25 12:22:55;;;;;;;;;;;21.80;80.10;;;;;;4957493;28;20404;-68
2021/09/25 12:25:21;;;;;;;;;;;21.90;80.20;;;;;;4973477;28;19922;-66
2021/09/25 12:27:46;;;;;;;;;;;22.00;80.50;;;;;;4973050;28;19946;-65
2021/09/25 12:30:14;;;;;;;;;;;22.00;80.60;;;;;;4959002;28;20036;-67
2021/09/25 12:32:41;;;;;;;;;;;22.20;80.60;;;;;;4954605;29;19919;-65
2021/09/25 12:35:17;;;;;;;;;;;22.30;80.00;;;;;;4953999;28;20283;-66
2021/09/25 12:37:49;;;;;;;;;;;22.30;80.00;;;;;;4954305;28;20009;-65
2021/09/25 12:40:18;;;;;;;;;;;22.30;79.00;;;;;;4954049;28;19930;-67
2021/09/25 12:42:44;;;;;;;;;;;22.20;79.50;;;;;;4955881;28;20475;-67
2021/09/25 12:45:11;;;;;;;;;;;22.20;79.00;;;;;;4954827;28;19954;-65
2021/09/25 12:47:37;;;;;;;;;;;22.20;79.40;;;;;;4955474;28;19918;-66
2021/09/25 12:50:15;;;;;;;;;;;22.30;79.10;;;;;;4954791;28;19978;-67
2021/09/25 12:52:41;;;;;;;;;;;22.30;79.10;;;;;;4954766;28;19926;-66
2021/09/25 12:55:10;;;;;;;;;;;22.20;78.80;;;;;;4954844;28;19922;-66
2021/09/25 12:57:36;;;;;;;;;;;22.00;77.80;;;;;;4954826;28;20033;-65
2021/09/25 13:00:04;;;;;;;;;;;21.90;78.20;;;;;;4954875;28;20001;-67
2021/09/25 13:02:30;;;;;;;;;;;21.90;78.90;;;;;;4962640;28;19976;-66
2021/09/25 13:04:57;;;;;;;;;;;21.80;78.60;;;;;;4973733;28;19953;-67
2021/09/25 13:07:25;;;;;;;;;;;21.90;78.80;;;;;;4974479;28;20033;-65
2021/09/25 13:09:52;;;;;;;;;;;21.90;78.70;;;;;;4969194;28;19918;-67
2021/09/25 13:12:31;;;;;;;;;;;22.00;79.30;;;;;;4953729;29;19922;-67
2021/09/25 13:14:57;;;;;;;;;;;22.10;79.30;;;;;;4954721;28;19930;-65
2021/09/25 13:17:22;;;;;;;;;;;22.20;79.30;;;;;;4937508;29;20430;-66
2021/09/25 13:19:48;;;;;;;;;;;22.40;77.90;;;;;;4955097;29;20004;-66
2021/09/25 13:22:13;;;;;;;;;;;22.40;78.10;;;;;;4954526;29;19984;-66
2021/09/25 13:24:40;;;;;;;;;;;22.40;78.20;;;;;;4954006;29;19918;-66
2021/09/25 13:27:06;;;;;;;;;;;22.60;78.50;;;;;;4937696;29;19926;-66
2021/09/25 13:29:32;;;;;;;;;;;22.80;78.40;;;;;;4953223;29;20376;-65
2021/09/25 13:31:58;;;;;;;;;;;22.90;78.00;;;;;;4953591;29;19922;-66
2021/09/25 13:34:23;;;;;;;;;;;22.90;77.20;;;;;;4955500;29;20203;-66
2021/09/25 13:36:50;;;;;;;;;;;22.80;75.80;;;;;;4954940;29;19918;-67
2021/09/25 13:39:16;;;;;;;;;;;22.50;75.30;;;;;;4954666;29;19953;-67
2021/09/25 13:41:44;;;;;;;;;;;22.50;75.80;;;;;;4954367;29;19925;-66
2021/09/25 13:44:10;;;;;;;;;;;22.30;76.10;;;;;;4954473;29;19919;-67
2021/09/25 13:46:35;;;;;;;;;;;22.20;76.20;;;;;;4953816;29;19919;-67
2021/09/25 13:49:01;;;;;;;;;;;22.00;76.00;;;;;;4954284;29;20375;-67
2021/09/25 13:51:27;;;;;;;;;;;22.00;76.50;;;;;;4953861;28;19929;-66
2021/09/25 13:53:52;;;;;;;;;;;22.00;76.80;;;;;;4953912;29;20294;-67
2021/09/25 13:56:18;;;;;;;;;;;21.90;76.70;;;;;;4953045;29;19919;-65
2021/09/25 13:58:43;;;;;;;;;;;21.90;77.20;;;;;;4953821;29;19918;-66
2021/09/25 14:01:09;;;;;;;;;;;21.70;77.40;;;;;;4954508;29;20399;-63
2021/09/25 14:03:35;;;;;;;;;;;22.10;77.70;;;;;;4953680;29;20395;-63
2021/09/25 14:06:00;;;;;;;;;;;22.30;77.40;;;;;;4953515;29;19919;-64
2021/09/25 14:08:28;;;;;;;;;;;22.30;76.30;;;;;;4954196;29;19919;-64
2021/09/25 14:10:54;;;;;;;;;;;22.20;76.00;;;;;;4953311;29;19930;-63
2021/09/25 14:13:20;;;;;;;;;;;22.00;75.40;;;;;;4954139;28;19946;-63
2021/09/25 14:15:45;;;;;;;;;;;21.80;75.10;;;;;;4953327;29;19918;-63